Flight Track Log - Related Links

Times and Time Zones

All times are in EDT time to prevent confusion due to time zone crossing. See the SWA149 flight status page for this flight to view local times or setup timezone preferences in your user account.

Time Position Orientation Groundspeed Altitude Reporting Facility
EDT Latitude Longitude Course Direction KTS MPH feet Rate Location/Type
Tue 12:17:22 PM 40.7167 -74.1500 27° Northeast 176 203 1,600  Level New York TRACON
Tue 12:18:17 PM 40.7667 -74.1167 27° Northeast 238 274 4,000 2,557 Climbing New York TRACON
Tue 12:19:17 PM 40.7667 -74.2167 270° West 265 305 6,500 3,076 Climbing New York TRACON
Tue 12:20:16 PM 40.7833 -74.3167 282° West 297 342 10,100 2,950 Climbing New York TRACON
Tue 12:21:17 PM 40.8000 -74.4333 281° West 346 398 12,400 2,443 Climbing New York TRACON
Tue 12:23:30 PM 40.8517 -74.7214 283° West 383 441 18,000 2,262 Climbing New York Center
Tue 12:24:28 PM 40.8697 -74.8653 279° West 383 441 19,600 2,085 Climbing New York Center
Tue 12:25:28 PM 40.8522 -75.0122 261° West 396 456 22,100 2,164 Climbing New York Center
Tue 12:26:30 PM 40.8300 -75.1617 259° West 408 470 24,000 1,574 Climbing New York Center
Tue 12:27:30 PM 40.8103 -75.3003 259° West 416 479 25,300 1,678 Climbing New York Center
Tue 12:28:28 PM 40.7856 -75.4522 258° West 428 493 27,300 2,168 Climbing New York Center
Tue 12:29:29 PM 40.7628 -75.6039 259° West 433 498 29,600 1,884 Climbing New York Center
Tue 12:30:29 PM 40.7397 -75.7531 259° West 426 490 31,100 1,613 Climbing New York Center
Tue 12:31:28 PM 40.7183 -75.9158 260° West 426 490 32,800 1,600 Climbing New York Center
Tue 12:32:29 PM 40.6958 -76.0456 257° West 421 484 34,300 1,190 Climbing New York Center
Tue 12:33:29 PM 40.6728 -76.1889 258° West 416 479 35,200 793 Climbing New York Center
Tue 12:34:30 PM 40.6764 -76.3342 272° West 405 466 35,900 403 Climbing New York Center
Tue 12:35:28 PM 40.6986 -76.4811 281° West 400 460 36,000 50 Climbing New York Center
Tue 12:36:29 PM 40.7206 -76.6308 281° West 413 475 36,000  Level New York Center
Tue 12:37:29 PM 40.7444 -76.7781 282° West 418 481 36,000  Level New York Center
Tue 12:38:30 PM 40.7658 -76.9278 281° West 412 474 36,000  Level New York Center
Tue 12:39:30 PM 40.7872 -77.0750 281° West 412 474 36,000  Level New York Center
Tue 12:40:28 PM 40.8067 -77.2194 280° West 412 474 36,000  Level New York Center
Tue 12:41:29 PM 40.8331 -77.3811 282° West 412 474 36,000  Level New York Center
Tue 12:42:30 PM 40.8519 -77.5256 280° West 406 467 36,000  Level New York Center
Tue 12:44:22 PM 40.8878 -77.7925 280° West 414 476 36,000  Level Cleveland Center
Tue 12:45:21 PM 40.9081 -77.9372 281° West 408 470 36,000  Level Cleveland Center
Tue 12:46:22 PM 40.9258 -78.0850 279° West 408 470 36,000  Level Cleveland Center
Tue 12:47:22 PM 40.9436 -78.2300 279° West 408 470 36,000  Level Cleveland Center
Tue 12:48:21 PM 40.9653 -78.3750 281° West 408 470 36,000  Level Cleveland Center
Tue 12:49:22 PM 40.9825 -78.5231 279° West 408 470 36,000  Level Cleveland Center
Tue 12:50:21 PM 40.9997 -78.6711 279° West 408 470 36,000  Level Cleveland Center
Tue 12:51:21 PM 41.0167 -78.8164 279° West 408 470 36,000  Level Cleveland Center
Tue 12:52:22 PM 41.0356 -78.9617 280° West 408 470 36,000  Level Cleveland Center
Tue 12:53:22 PM 41.0500 -79.1072 278° West 408 470 36,000  Level Cleveland Center
Tue 12:54:22 PM 41.0686 -79.2583 279° West 408 470 36,000  Level Cleveland Center
Tue 12:55:21 PM 41.0825 -79.4042 277° West 408 470 36,000  Level Cleveland Center
Tue 12:56:21 PM 41.1006 -79.5525 279° West 408 470 36,000  Level Cleveland Center
Tue 12:57:21 PM 41.1186 -79.7011 279° West 408 470 36,000  Level Cleveland Center
Tue 12:58:22 PM 41.1322 -79.8525 277° West 408 470 36,000  Level Cleveland Center
Tue 12:59:22 PM 41.1497 -80.0178 278° West 413 475 36,000  Level Cleveland Center
Tue 01:00:21 PM 41.1669 -80.1500 280° West 413 475 36,000  Level Cleveland Center
Tue 01:01:22 PM 41.1822 -80.3017 278° West 413 475 36,000  Level Cleveland Center
Tue 01:02:22 PM 41.1969 -80.4700 277° West 418 481 36,000  Level Cleveland Center
Tue 01:03:22 PM 41.2117 -80.6053 278° West 418 481 36,000  Level Cleveland Center
Tue 01:04:22 PM 41.2261 -80.7569 277° West 429 494 36,000  Level Cleveland Center
Tue 01:05:21 PM 41.2403 -80.9144 277° West 429 494 36,000  Level Cleveland Center
Tue 01:06:21 PM 41.2564 -81.0664 278° West 424 488 36,000  Level Cleveland Center
Tue 01:07:22 PM 41.2703 -81.2242 277° West 424 488 36,000  Level Cleveland Center
Tue 01:08:21 PM 41.2858 -81.3789 278° West 429 494 36,000  Level Cleveland Center
Tue 01:09:21 PM 41.3014 -81.5283 278° West 424 488 36,000  Level Cleveland Center
Tue 01:10:21 PM 41.3169 -81.6806 278° West 424 488 36,000  Level Cleveland Center
Tue 01:11:21 PM 41.3278 -81.8331 275° West 424 488 36,000  Level Cleveland Center
Tue 01:12:21 PM 41.3467 -82.0047 278° West 424 488 36,000  Level Cleveland Center
Tue 01:13:22 PM 41.3553 -82.1433 275° West 430 495 36,000  Level Cleveland Center
Tue 01:14:22 PM 41.3656 -82.3014 275° West 424 488 36,000  Level Cleveland Center
Tue 01:15:22 PM 41.3736 -82.4536 274° West 424 488 36,000  Level Cleveland Center
Tue 01:16:22 PM 41.3814 -82.6089 274° West 424 488 36,000  Level Cleveland Center
Tue 01:17:21 PM 41.3906 -82.7781 274° West 424 488 36,000 -756 Level Cleveland Center
Tue 01:18:21 PM 41.4003 -82.9250 275° West 418 481 34,500 -1,000 Descending Cleveland Center
Tue 01:19:21 PM 41.4094 -83.0806 275° West 418 481 34,000 -250 Descending Cleveland Center
Tue 01:20:21 PM 41.4144 -83.2303 273° West 418 481 34,000  Level Cleveland Center
Tue 01:21:22 PM 41.4211 -83.3911 273° West 425 489 34,000  Level Cleveland Center
Tue 01:22:22 PM 41.4317 -83.5439 275° West 425 489 34,000  Level Cleveland Center
Tue 01:23:21 PM 41.4358 -83.6992 272° West 425 489 34,000  Level Cleveland Center
Tue 01:24:21 PM 41.4464 -83.8522 275° West 425 489 34,000 -50 Level Cleveland Center
Tue 01:25:21 PM 41.4522 -84.0075 273° West 425 489 33,900 -496 Descending Cleveland Center
Tue 01:26:22 PM 41.4578 -84.1631 273° West 425 489 33,000 -967 Descending Cleveland Center
Tue 01:28:21 PM 41.4747 -84.4561 275° West 424 488 31,000 -994 Descending Chicago Center
Tue 01:29:23 PM 41.4803 -84.6169 273° West 431 496 30,000 -484 Descending Chicago Center
Tue 01:30:25 PM 41.4861 -84.7819 273° West 442 509 30,000  Level Chicago Center
Tue 01:31:27 PM 41.4922 -84.9511 273° West 452 520 30,000  Level Chicago Center
Tue 01:32:29 PM 41.4983 -85.1450 272° West 442 509 30,000 -1,548 Level Chicago Center
Tue 01:33:31 PM 41.5031 -85.3064 272° West 433 498 26,800 -2,903 Descending Chicago Center
Tue 01:34:33 PM 41.5072 -85.4711 272° West 431 496 24,000 -1,452 Descending Chicago Center
Tue 01:35:35 PM 41.5131 -85.6222 273° West 401 461 23,800 -1,210 Descending Chicago Center
Tue 01:36:37 PM 41.5181 -85.7722 273° West 401 461 21,500 -1,887 Descending Chicago Center
Tue 01:37:39 PM 41.5217 -85.9181 272° West 394 453 19,900 -1,984 Descending Chicago Center
Tue 01:38:41 PM 41.5242 -86.0556 271° West 374 430 17,400 -2,448 Descending Chicago Center
Tue 01:39:44 PM 41.5236 -86.1881 270° West 360 414 14,800 -2,640 Descending Chicago Center
Tue 01:40:46 PM 41.5228 -86.3394 270° West 341 392 11,900 -2,032 Descending Chicago Center
Tue 01:41:48 PM 41.5219 -86.4617 270° West 333 383 10,600 -871 Descending Chicago Center
Tue 01:42:50 PM 41.5211 -86.5847 270° West 332 382 10,100 -242 Descending Chicago Center
Tue 01:43:52 PM 41.5200 -86.7161 269° West 329 379 10,100 -48 Level Chicago Center
Tue 01:44:54 PM 41.5192 -86.8344 270° West 322 371 10,000 -484 Descending Chicago Center
Tue 01:45:56 PM 41.5181 -86.9336 269° West 272 313 9,100 -1,210 Descending Chicago Center
Tue 01:46:58 PM 41.5164 -87.0311 269° West 264 304 7,500 -1,597 Descending Chicago Center
Tue 01:48:00 PM 41.5167 -87.1478 270° West 265 305 5,800 -1,361 Descending Chicago Center
Tue 01:48:57 PM 41.5500 -87.2333 298° West 266 306 4,800 -974 Descending Chicago TRACON
Tue 01:49:57 PM 41.6000 -87.3000 315° West 279 321 3,900 -400 Descending Chicago TRACON
Tue 01:50:57 PM 41.6500 -87.3833 309° West 241 277 4,000  Climbing Chicago TRACON
Tue 01:52:09 PM 41.6900 -87.4411 313° West 238 274 3,900 -537 Descending Chicago Center
Tue 01:53:11 PM 41.7372 -87.5183 309° West 227 261 2,800 -677 Descending Chicago Center
Tue 01:54:13 PM 41.7775 -87.5822 310° West 227 261 2,500 -194 Descending Chicago Center
Tue 01:55:15 PM 41.8114 -87.6389 309° West 216 249 2,400 -323 Descending Chicago Center
Tue 01:55:46 PM 41.8333 -87.6667 317° Northwest 196 226 2,000 -725 Descending Chicago TRACON
Tue 01:56:46 PM 41.8167 -87.7167 246° West 126 145 1,300 -700 Descending Chicago TRACON

Login

Don't have an account? Register now (free) for customized features, flight alerts, and more!